createdAt,value
2018-04-10T00:02:03.698Z,99.90
2018-04-10T00:04:31.284Z,99.90
2018-04-10T00:06:59.654Z,99.90
2018-04-10T00:09:28.020Z,99.90
2018-04-10T00:11:55.680Z,99.90
2018-04-10T00:14:23.354Z,99.90
2018-04-10T00:16:51.706Z,99.90
2018-04-10T00:19:19.381Z,99.90
2018-04-10T00:21:46.963Z,99.90
2018-04-10T00:24:15.348Z,99.90
2018-04-10T00:26:43.729Z,99.90
2018-04-10T00:29:12.078Z,99.90
2018-04-10T00:31:41.178Z,99.90
2018-04-10T00:34:08.827Z,99.90
2018-04-10T00:36:36.501Z,99.90
2018-04-10T00:39:04.084Z,99.90
2018-04-10T00:41:32.445Z,99.90
2018-04-10T00:44:00.813Z,99.90
2018-04-10T00:46:28.409Z,99.90
2018-04-10T00:48:56.005Z,99.90
2018-04-10T00:51:23.598Z,99.90
2018-04-10T00:53:51.270Z,99.90
2018-04-10T00:56:19.634Z,99.90
2018-04-10T00:58:47.230Z,99.90
2018-04-10T01:01:14.814Z,99.90
2018-04-10T01:03:42.483Z,99.90
2018-04-10T01:06:10.088Z,99.90
2018-04-10T01:08:37.701Z,99.90
2018-04-10T01:11:05.284Z,99.90
2018-04-10T01:13:32.981Z,99.90
2018-04-10T01:16:00.638Z,99.90
2018-04-10T01:18:28.244Z,99.90
2018-04-10T01:20:55.827Z,99.90
2018-04-10T01:23:23.432Z,99.90
2018-04-10T01:25:51.777Z,99.90
2018-04-10T01:28:19.362Z,99.90
2018-04-10T01:30:47.710Z,99.90
2018-04-10T01:33:15.303Z,99.90
2018-04-10T01:35:44.508Z,99.90
2018-04-10T01:38:12.873Z,99.90
2018-04-10T01:40:40.463Z,99.90
2018-04-10T01:43:08.098Z,99.90
2018-04-10T01:45:36.509Z,99.90
2018-04-10T01:48:04.150Z,99.90
2018-04-10T01:50:32.594Z,99.90
2018-04-10T01:53:00.187Z,99.90
2018-04-10T01:55:28.565Z,99.90
2018-04-10T01:57:56.994Z,99.90
2018-04-10T02:00:24.615Z,99.90
2018-04-10T02:02:52.993Z,99.90
2018-04-10T02:05:21.409Z,99.90
2018-04-10T02:07:48.990Z,99.90
2018-04-10T02:10:16.581Z,99.90
2018-04-10T02:21:17.344Z,99.90
2018-04-10T02:23:44.950Z,99.90
2018-04-10T02:26:13.285Z,99.90
2018-04-10T02:28:40.893Z,99.90
2018-04-10T02:31:09.369Z,99.90
2018-04-10T02:33:37.732Z,99.90
2018-04-10T02:36:06.324Z,99.90
2018-04-10T02:38:34.683Z,99.90
2018-04-10T02:41:02.359Z,99.90
2018-04-10T02:43:30.731Z,99.90
2018-04-10T02:45:58.456Z,99.90
2018-04-10T02:48:26.047Z,99.90
2018-04-10T02:50:54.502Z,99.90
2018-04-10T02:53:22.089Z,99.90
2018-04-10T02:55:49.767Z,99.90
2018-04-10T02:58:17.446Z,99.90
2018-04-10T03:00:45.798Z,99.90
2018-04-10T03:03:13.567Z,99.90
2018-04-10T03:05:41.154Z,99.90
2018-04-10T03:08:09.521Z,99.90
2018-04-10T03:10:37.898Z,99.90
2018-04-10T03:13:06.250Z,99.90
2018-04-10T03:15:33.938Z,99.90
2018-04-10T03:18:02.286Z,99.90
2018-04-10T03:20:29.896Z,99.90
2018-04-10T03:22:57.500Z,99.90
2018-04-10T03:25:25.097Z,99.90
2018-04-10T03:27:53.437Z,99.90
2018-04-10T03:30:21.082Z,99.90
2018-04-10T03:32:48.684Z,99.90
2018-04-10T03:35:16.381Z,99.90
2018-04-10T03:37:43.977Z,99.90
2018-04-10T03:40:11.558Z,99.90
2018-04-10T03:42:39.194Z,99.90
2018-04-10T03:45:06.806Z,99.90
2018-04-10T03:47:35.176Z,99.90
2018-04-10T03:50:02.769Z,99.90
2018-04-10T03:52:30.365Z,99.90
2018-04-10T03:54:57.959Z,99.90
2018-04-10T03:57:25.617Z,99.90
2018-04-10T03:59:53.283Z,99.90
2018-04-10T04:02:20.890Z,99.90
2018-04-10T04:04:49.154Z,99.90
2018-04-10T04:07:16.814Z,99.90
2018-04-10T04:09:44.421Z,99.90
2018-04-10T04:12:12.574Z,99.90
2018-04-10T04:14:40.184Z,99.90
2018-04-10T04:17:19.543Z,99.90
2018-04-10T04:19:58.983Z,99.90
2018-04-10T04:22:44.230Z,99.90
2018-04-10T04:25:11.838Z,99.90
2018-04-10T04:27:39.419Z,99.90
2018-04-10T04:30:07.010Z,99.90
2018-04-10T04:32:34.596Z,99.90
2018-04-10T04:35:02.199Z,99.90
2018-04-10T04:37:29.795Z,99.90
2018-04-10T04:39:58.181Z,99.90
2018-04-10T04:42:26.526Z,99.90
2018-04-10T04:44:54.134Z,99.90
2018-04-10T04:47:22.495Z,99.90
2018-04-10T04:49:50.845Z,99.90
2018-04-10T04:52:18.431Z,99.90
2018-04-10T04:54:46.847Z,99.90
2018-04-10T04:57:14.445Z,99.90
2018-04-10T04:59:42.033Z,99.90
2018-04-10T05:02:10.369Z,99.90
2018-04-10T05:04:37.988Z,99.90
2018-04-10T05:07:06.326Z,99.90
2018-04-10T05:09:33.929Z,99.90
2018-04-10T05:12:02.269Z,99.90
2018-04-10T05:14:29.850Z,99.90
2018-04-10T05:16:58.206Z,99.90
2018-04-10T05:19:25.809Z,99.90
2018-04-10T05:21:54.325Z,99.90
2018-04-10T05:24:21.914Z,99.90
2018-04-10T05:26:49.494Z,99.90
2018-04-10T05:29:17.847Z,99.90
2018-04-10T05:31:45.534Z,99.90
2018-04-10T05:34:13.889Z,99.90
2018-04-10T05:36:42.344Z,99.90
2018-04-10T05:39:09.994Z,99.90
2018-04-10T05:41:37.622Z,99.90
2018-04-10T05:44:05.974Z,99.90
2018-04-10T05:46:33.562Z,99.90
2018-04-10T05:49:01.925Z,99.90
2018-04-10T05:51:29.530Z,99.90
2018-04-10T05:53:57.267Z,99.90
2018-04-10T05:56:25.366Z,99.90
2018-04-10T05:58:52.967Z,99.90
2018-04-10T06:01:20.670Z,99.90
2018-04-10T06:03:49.045Z,99.90
2018-04-10T06:06:17.478Z,99.90
2018-04-10T06:08:45.071Z,99.90
2018-04-10T06:11:17.034Z,99.90
2018-04-10T06:13:45.397Z,99.90
2018-04-10T06:16:13.001Z,99.90
2018-04-10T06:18:40.636Z,99.90
2018-04-10T06:21:08.449Z,99.90
2018-04-10T06:23:36.158Z,99.90
2018-04-10T06:26:03.764Z,99.90
2018-04-10T06:28:31.349Z,99.90
2018-04-10T06:30:58.950Z,99.90
2018-04-10T06:33:26.542Z,99.90
2018-04-10T06:35:54.452Z,99.90
2018-04-10T06:38:22.199Z,99.90
2018-04-10T06:40:49.924Z,99.90
2018-04-10T06:43:18.270Z,99.90
2018-04-10T06:45:45.862Z,99.90
2018-04-10T06:48:14.335Z,99.90
2018-04-10T06:50:42.717Z,99.90
2018-04-10T06:53:10.370Z,99.90
2018-04-10T06:55:38.923Z,99.90
2018-04-10T06:58:06.591Z,99.90
2018-04-10T07:00:34.179Z,99.90
2018-04-10T07:03:02.550Z,99.90
2018-04-10T07:05:31.038Z,99.90
2018-04-10T07:07:59.505Z,99.90
2018-04-10T07:10:27.174Z,99.90
2018-04-10T07:12:54.837Z,99.90
2018-04-10T07:15:23.215Z,99.90
2018-04-10T07:17:51.307Z,99.90
2018-04-10T07:20:19.678Z,99.90
2018-04-10T07:22:47.345Z,99.90
2018-04-10T07:25:15.684Z,99.90
2018-04-10T07:27:43.277Z,99.90
2018-04-10T07:30:11.068Z,99.90
2018-04-10T07:32:38.697Z,99.90
2018-04-10T07:35:06.307Z,99.90
2018-04-10T07:37:35.378Z,99.90
2018-04-10T07:40:03.014Z,99.90
2018-04-10T07:42:30.590Z,99.90
2018-04-10T07:44:58.214Z,99.90
2018-04-10T07:47:25.802Z,99.90
2018-04-10T07:49:54.227Z,99.90
2018-04-10T07:52:21.805Z,99.90
2018-04-10T07:54:49.386Z,99.90
2018-04-10T07:57:17.058Z,99.90
2018-04-10T07:59:45.418Z,99.90
2018-04-10T08:02:13.033Z,99.90
2018-04-10T08:04:40.671Z,99.90
2018-04-10T08:07:09.018Z,99.90
2018-04-10T08:09:36.627Z,99.90
2018-04-10T08:12:04.220Z,99.90
2018-04-10T08:14:31.821Z,99.90
2018-04-10T08:16:59.394Z,99.90
2018-04-10T08:19:27.199Z,99.90
2018-04-10T08:21:54.777Z,99.90
2018-04-10T08:24:23.291Z,99.90
2018-04-10T08:26:50.862Z,99.90
2018-04-10T08:29:19.209Z,99.90
2018-04-10T08:31:46.903Z,99.90
2018-04-10T08:34:15.270Z,99.90
2018-04-10T08:36:42.855Z,99.90
2018-04-10T08:39:10.435Z,99.90
2018-04-10T08:41:38.020Z,99.90
2018-04-10T08:44:05.620Z,98.80
2018-04-10T08:46:33.962Z,98.50
2018-04-10T08:49:01.682Z,98.50
2018-04-10T08:51:29.267Z,97.00
2018-04-10T08:53:56.879Z,96.90
2018-04-10T08:56:25.227Z,94.50
2018-04-10T08:58:52.909Z,94.50
2018-04-10T09:01:20.581Z,92.80
2018-04-10T09:03:49.019Z,85.40
2018-04-10T09:06:16.646Z,85.20
2018-04-10T09:08:44.256Z,78.90
2018-04-10T09:11:11.986Z,67.50
2018-04-10T09:13:39.588Z,64.30
2018-04-10T09:16:07.219Z,59.30
2018-04-10T09:18:34.804Z,57.90
2018-04-10T09:21:02.384Z,51.90
2018-04-10T09:23:29.974Z,49.00
2018-04-10T09:25:57.574Z,46.50
2018-04-10T09:28:25.146Z,46.20
2018-04-10T09:30:52.762Z,45.10
2018-04-10T09:33:20.347Z,44.50
2018-04-10T09:35:47.951Z,42.90
2018-04-10T09:38:16.313Z,42.90
2018-04-10T09:40:44.720Z,42.50
2018-04-10T09:43:13.087Z,41.50
2018-04-10T09:45:40.749Z,41.40
2018-04-10T09:48:08.330Z,40.30
2018-04-10T09:50:36.665Z,40.70
2018-04-10T09:53:04.469Z,40.70
2018-04-10T09:55:32.851Z,40.50
2018-04-10T09:58:01.247Z,39.40
2018-04-10T10:00:35.409Z,39.60
2018-04-10T10:03:03.160Z,39.60
2018-04-10T10:05:30.743Z,38.50
2018-04-10T10:07:59.215Z,37.90
2018-04-10T10:10:27.740Z,38.10
2018-04-10T10:12:56.154Z,37.90
2018-04-10T10:15:23.839Z,37.90
2018-04-10T10:17:51.517Z,37.60
2018-04-10T10:20:19.112Z,37.40
2018-04-10T10:22:47.475Z,36.60
2018-04-10T10:25:16.000Z,37.40
2018-04-10T10:27:43.590Z,37.30
2018-04-10T10:30:11.173Z,36.10
2018-04-10T10:32:39.553Z,36.70
2018-04-10T10:35:08.033Z,37.20
2018-04-10T10:37:36.390Z,37.20
2018-04-10T10:40:03.975Z,37.20
2018-04-10T10:42:32.385Z,35.30
2018-04-10T10:44:59.964Z,35.30
2018-04-10T10:47:27.579Z,34.50
2018-04-10T10:49:55.931Z,34.80
2018-04-10T10:52:23.543Z,34.70
2018-04-10T10:54:51.123Z,34.90
2018-04-10T10:57:18.730Z,33.60
2018-04-10T10:59:46.399Z,33.20
2018-04-10T11:02:14.784Z,33.10
2018-04-10T11:04:43.159Z,32.60
2018-04-10T11:07:11.548Z,32.50
2018-04-10T11:09:39.926Z,33.30
2018-04-10T11:12:07.516Z,33.20
2018-04-10T11:14:35.138Z,32.90
2018-04-10T11:17:03.759Z,33.40
2018-04-10T11:19:32.193Z,32.90
2018-04-10T11:21:59.782Z,32.90
2018-04-10T11:24:27.362Z,31.90
2018-04-10T11:26:55.028Z,31.70
2018-04-10T11:29:22.759Z,31.60
2018-04-10T11:31:51.138Z,32.30
2018-04-10T11:34:19.490Z,31.50
2018-04-10T11:36:47.838Z,30.50
2018-04-10T11:39:15.423Z,30.50
2018-04-10T11:41:43.013Z,30.70
2018-04-10T11:44:11.476Z,31.20
2018-04-10T11:46:41.347Z,31.20
2018-04-10T11:49:09.127Z,31.20
2018-04-10T11:51:36.728Z,32.40
2018-04-10T11:54:04.351Z,33.40
2018-04-10T11:56:31.965Z,33.80
2018-04-10T11:58:59.566Z,34.00
2018-04-10T12:01:27.160Z,35.00
2018-04-10T12:03:54.849Z,34.70
2018-04-10T12:06:23.227Z,33.50
2018-04-10T12:08:51.590Z,32.00
2018-04-10T12:11:19.958Z,32.10
2018-04-10T12:13:47.645Z,32.00
2018-04-10T12:16:15.238Z,32.10
2018-04-10T12:18:42.816Z,32.50
2018-04-10T12:21:10.415Z,32.50
2018-04-10T12:23:38.783Z,33.40
2018-04-10T12:26:06.362Z,33.40
2018-04-10T12:28:33.949Z,33.40
2018-04-10T12:31:01.560Z,34.00
2018-04-10T12:33:29.268Z,34.10
2018-04-10T12:35:56.859Z,33.60
2018-04-10T12:38:24.437Z,33.10
2018-04-10T12:40:52.113Z,33.60
2018-04-10T12:43:19.723Z,34.00
2018-04-10T12:45:47.390Z,33.80
2018-04-10T12:48:14.967Z,34.20
2018-04-10T12:50:42.621Z,33.10
2018-04-10T12:53:11.033Z,33.70
2018-04-10T12:55:39.232Z,32.90
2018-04-10T12:58:06.857Z,33.30
2018-04-10T13:00:34.449Z,32.90
2018-04-10T13:03:02.794Z,32.40
2018-04-10T13:05:30.426Z,32.30
2018-04-10T13:07:58.041Z,31.60
2018-04-10T13:10:26.416Z,31.10
2018-04-10T13:12:53.982Z,31.10
2018-04-10T13:15:22.356Z,31.60
2018-04-10T13:17:49.938Z,31.50
2018-04-10T13:20:17.525Z,30.80
2018-04-10T13:22:45.179Z,28.50
2018-04-10T13:25:12.811Z,28.70
2018-04-10T13:27:41.177Z,28.50
2018-04-10T13:30:08.783Z,28.50
2018-04-10T13:32:36.579Z,28.50
2018-04-10T13:35:04.331Z,28.30
2018-04-10T13:37:31.915Z,29.30
2018-04-10T13:40:00.259Z,27.50
2018-04-10T13:42:27.923Z,27.50
2018-04-10T13:44:55.559Z,27.90
2018-04-10T13:47:23.255Z,28.40
2018-04-10T13:49:51.007Z,28.00
2018-04-10T13:52:18.589Z,27.60
2018-04-10T13:54:46.278Z,28.30
2018-04-10T13:57:14.004Z,29.00
2018-04-10T13:59:41.616Z,28.30
2018-04-10T14:02:09.962Z,27.40
2018-04-10T14:04:37.695Z,27.40
2018-04-10T14:07:05.315Z,27.00
2018-04-10T14:09:32.967Z,27.10
2018-04-10T14:12:00.550Z,28.00
2018-04-10T14:14:28.890Z,28.80
2018-04-10T14:16:57.248Z,27.90
2018-04-10T14:19:24.835Z,27.90
2018-04-10T14:21:52.418Z,26.60
2018-04-10T14:24:20.772Z,27.00
2018-04-10T14:26:49.226Z,27.20
2018-04-10T14:29:16.818Z,27.40
2018-04-10T14:31:44.468Z,27.70
2018-04-10T14:34:12.036Z,28.10
2018-04-10T14:36:39.624Z,28.20
2018-04-10T14:39:07.535Z,27.90
2018-04-10T14:41:35.727Z,29.30
2018-04-10T14:44:03.310Z,29.30
2018-04-10T14:46:30.890Z,30.30
2018-04-10T14:48:59.252Z,29.50
2018-04-10T14:51:27.601Z,29.10
2018-04-10T14:53:55.202Z,29.10
2018-04-10T14:56:23.607Z,27.00
2018-04-10T14:58:51.248Z,26.90
2018-04-10T15:01:19.602Z,27.30
2018-04-10T15:03:47.171Z,27.30
2018-04-10T15:06:14.796Z,27.90
2018-04-10T15:08:42.357Z,27.70
2018-04-10T15:11:10.740Z,27.70
2018-04-10T15:13:38.315Z,27.70
2018-04-10T15:16:05.956Z,28.00
2018-04-10T15:18:33.557Z,27.40
2018-04-10T15:21:01.156Z,27.30
2018-04-10T15:23:28.758Z,27.10
2018-04-10T15:25:56.707Z,27.20
2018-04-10T15:28:24.307Z,27.30
2018-04-10T15:30:52.674Z,27.60
2018-04-10T15:33:20.251Z,27.60
2018-04-10T15:35:47.923Z,27.60
2018-04-10T15:38:15.490Z,28.00
2018-04-10T15:40:43.848Z,28.00
2018-04-10T15:43:12.208Z,28.20
2018-04-10T15:45:39.782Z,28.10
2018-04-10T15:48:07.350Z,28.50
2018-04-10T15:50:35.716Z,29.10
2018-04-10T15:53:03.299Z,29.10
2018-04-10T15:55:31.707Z,29.50
2018-04-10T15:57:59.280Z,29.50
2018-04-10T16:00:26.916Z,29.40
2018-04-10T16:02:55.286Z,29.90
2018-04-10T16:05:23.669Z,30.00
2018-04-10T16:07:51.362Z,30.00
2018-04-10T16:10:19.127Z,30.00
2018-04-10T16:12:46.884Z,29.70
2018-04-10T16:15:14.532Z,29.90
2018-04-10T16:17:42.187Z,29.60
2018-04-10T16:20:10.735Z,29.70
2018-04-10T16:22:38.320Z,29.70
2018-04-10T16:25:06.682Z,30.40
2018-04-10T16:27:34.269Z,30.20
2018-04-10T16:30:02.612Z,31.00
2018-04-10T16:32:30.202Z,30.90
2018-04-10T16:34:58.564Z,31.60
2018-04-10T16:37:26.229Z,31.50
2018-04-10T16:39:53.835Z,32.10
2018-04-10T16:42:21.427Z,32.00
2018-04-10T16:44:49.054Z,32.20
2018-04-10T16:47:16.652Z,32.30
2018-04-10T16:49:44.217Z,32.80
2018-04-10T16:52:11.838Z,33.00
2018-04-10T16:54:39.403Z,33.20
2018-04-10T16:57:06.984Z,33.50
2018-04-10T16:59:34.582Z,33.50
2018-04-10T17:02:02.939Z,34.20
2018-04-10T17:04:30.519Z,34.20
2018-04-10T17:06:58.887Z,34.50
2018-04-10T17:09:26.565Z,34.40
2018-04-10T17:11:54.994Z,35.20
2018-04-10T17:14:22.598Z,35.20
2018-04-10T17:16:50.972Z,35.40
2018-04-10T17:19:19.401Z,35.40
2018-04-10T17:21:47.096Z,35.40
2018-04-10T17:24:14.674Z,35.80
2018-04-10T17:26:42.260Z,36.00
2018-04-10T17:29:10.650Z,36.50
2018-04-10T17:31:38.265Z,36.50
2018-04-10T17:34:06.717Z,36.80
2018-04-10T17:36:34.373Z,36.70
2018-04-10T17:39:01.991Z,37.10
2018-04-10T17:41:30.347Z,37.10
2018-04-10T17:43:58.031Z,37.10
2018-04-10T17:46:26.388Z,37.90
2018-04-10T17:48:54.018Z,37.90
2018-04-10T17:51:22.303Z,38.20
2018-04-10T17:53:49.874Z,38.60
2018-04-10T17:56:17.497Z,39.00
2018-04-10T17:58:45.076Z,39.20
2018-04-10T18:01:12.651Z,39.60
2018-04-10T18:03:40.350Z,39.60
2018-04-10T18:06:08.025Z,39.80
2018-04-10T18:08:36.379Z,40.50
2018-04-10T18:11:04.030Z,40.40
2018-04-10T18:13:31.611Z,40.90
2018-04-10T18:15:59.992Z,42.00
2018-04-10T18:18:28.395Z,41.60
2018-04-10T18:20:55.962Z,41.60
2018-04-10T18:23:23.565Z,41.60
2018-04-10T18:25:51.289Z,42.10
2018-04-10T18:28:19.757Z,42.60
2018-04-10T18:30:47.429Z,42.60
2018-04-10T18:33:15.357Z,42.40
2018-04-10T18:35:43.047Z,43.00
2018-04-10T18:38:11.394Z,42.90
2018-04-10T18:40:38.986Z,43.50
2018-04-10T18:43:07.343Z,43.30
2018-04-10T18:45:35.628Z,43.30
2018-04-10T18:48:03.993Z,43.60
2018-04-10T18:50:31.585Z,43.50
2018-04-10T18:52:59.176Z,43.60
2018-04-10T18:55:26.789Z,44.00
2018-04-10T18:57:55.791Z,44.20
2018-04-10T19:00:24.162Z,44.20
2018-04-10T19:02:52.505Z,44.40
2018-04-10T19:05:20.095Z,44.30
2018-04-10T19:07:48.437Z,44.80
2018-04-10T19:10:16.047Z,44.40
2018-04-10T19:12:44.687Z,45.70
2018-04-10T19:15:12.331Z,45.00
2018-04-10T19:17:39.916Z,45.80
2018-04-10T19:20:07.515Z,45.10
2018-04-10T19:22:35.931Z,45.20
2018-04-10T19:25:03.519Z,45.20
2018-04-10T19:27:31.104Z,45.40
2018-04-10T19:29:59.466Z,45.60
2018-04-10T19:32:27.118Z,45.60
2018-04-10T19:34:54.715Z,45.50
2018-04-10T19:37:23.147Z,46.00
2018-04-10T19:39:52.061Z,46.00
2018-04-10T19:42:19.687Z,45.80
2018-04-10T19:44:47.293Z,45.70
2018-04-10T19:47:15.337Z,45.60
2018-04-10T19:49:42.938Z,45.60
2018-04-10T19:52:11.289Z,45.60
2018-04-10T19:54:39.140Z,45.50
2018-04-10T19:57:06.826Z,45.90
2018-04-10T19:59:34.508Z,45.70
2018-04-10T20:02:02.122Z,45.50
2018-04-10T20:04:29.740Z,45.60
2018-04-10T20:06:57.543Z,46.30
2018-04-10T20:09:25.202Z,46.10
2018-04-10T20:11:52.801Z,46.30
2018-04-10T20:14:20.411Z,46.30
2018-04-10T20:16:48.005Z,46.80
2018-04-10T20:19:15.666Z,47.10
2018-04-10T20:21:43.247Z,46.90
2018-04-10T20:24:10.984Z,47.00
2018-04-10T20:26:38.555Z,47.20
2018-04-10T20:29:06.142Z,47.70
2018-04-10T20:31:34.498Z,48.10
2018-04-10T20:34:02.109Z,48.10
2018-04-10T20:36:29.687Z,48.50
2018-04-10T20:38:57.267Z,49.10
2018-04-10T20:41:24.866Z,48.90
2018-04-10T20:43:53.243Z,49.50
2018-04-10T20:46:21.619Z,49.50
2018-04-10T20:48:50.026Z,50.60
2018-04-10T20:51:17.593Z,49.90
2018-04-10T20:53:45.189Z,50.50
2018-04-10T20:56:12.764Z,51.10
2018-04-10T20:58:40.351Z,51.80
2018-04-10T21:01:08.141Z,51.90
2018-04-10T21:03:35.727Z,52.40
2018-04-10T21:06:03.307Z,53.80
2018-04-10T21:08:31.021Z,54.50
2018-04-10T21:10:58.608Z,55.40
2018-04-10T21:13:26.207Z,57.10
2018-04-10T21:15:54.541Z,60.40
2018-04-10T21:18:22.131Z,60.40
2018-04-10T21:20:49.843Z,62.50
2018-04-10T21:23:17.553Z,64.10
2018-04-10T21:25:45.183Z,66.00
2018-04-10T21:28:12.770Z,70.10
2018-04-10T21:30:40.387Z,71.40
2018-04-10T21:33:07.953Z,73.40
2018-04-10T21:35:35.657Z,88.80
2018-04-10T21:38:03.247Z,78.80
2018-04-10T21:40:30.965Z,80.10
2018-04-10T21:43:04.257Z,81.70
2018-04-10T21:45:31.939Z,99.90
2018-04-10T21:47:59.569Z,90.00
2018-04-10T21:50:27.136Z,88.80
2018-04-10T21:52:54.736Z,89.00
2018-04-10T21:55:23.016Z,89.90
2018-04-10T21:57:50.601Z,89.30
2018-04-10T22:00:18.250Z,89.50
2018-04-10T22:02:45.805Z,89.60
2018-04-10T22:05:13.385Z,90.30
2018-04-10T22:07:41.720Z,90.50
2018-04-10T22:10:09.408Z,90.50
2018-04-10T22:12:37.001Z,90.80
2018-04-10T22:15:04.622Z,91.00
2018-04-10T22:17:32.960Z,92.10
2018-04-10T22:20:01.499Z,92.10
2018-04-10T22:22:29.834Z,92.70
2018-04-10T22:24:58.747Z,92.60
2018-04-10T22:27:25.812Z,93.20
2018-04-10T22:29:54.185Z,93.70
2018-04-10T22:32:21.841Z,93.70
2018-04-10T22:34:49.387Z,93.60
2018-04-10T22:37:17.762Z,94.50
2018-04-10T22:39:46.118Z,94.70
2018-04-10T22:42:13.707Z,94.70
2018-04-10T22:44:42.063Z,95.70
2018-04-10T22:47:11.179Z,95.70
2018-04-10T22:49:39.539Z,96.10
2018-04-10T22:52:07.116Z,96.10
2018-04-10T22:54:37.382Z,96.70
2018-04-10T22:57:04.969Z,96.70
2018-04-10T22:59:32.667Z,97.00
2018-04-10T23:02:01.041Z,97.70
2018-04-10T23:04:29.394Z,98.00
2018-04-10T23:06:57.006Z,97.90
2018-04-10T23:09:24.708Z,98.50
2018-04-10T23:11:52.311Z,98.40
2018-04-10T23:14:19.903Z,98.60
2018-04-10T23:16:48.246Z,98.40
2018-04-10T23:19:15.879Z,98.40
2018-04-10T23:21:43.493Z,98.50
2018-04-10T23:24:11.830Z,98.70
2018-04-10T23:26:39.426Z,98.60
2018-04-10T23:29:07.012Z,98.70
2018-04-10T23:31:35.354Z,98.80
2018-04-10T23:34:02.930Z,98.80
2018-04-10T23:36:30.510Z,98.70
2018-04-10T23:38:58.870Z,98.90
2018-04-10T23:41:26.450Z,98.80
2018-04-10T23:43:54.801Z,99.10
2018-04-10T23:46:22.379Z,99.00
2018-04-10T23:48:49.967Z,99.00
2018-04-10T23:51:17.544Z,99.10
2018-04-10T23:53:45.161Z,99.20
2018-04-10T23:56:13.417Z,99.10
2018-04-10T23:58:40.922Z,99.10
